createdAt,value
2019-02-15T00:00:58.857Z,52.73
2019-02-15T00:07:49.409Z,50.60
2019-02-15T00:10:46.668Z,49.00
2019-02-15T00:17:56.864Z,53.27
2019-02-15T00:27:45.825Z,48.47
2019-02-15T00:31:07.484Z,48.20
2019-02-15T00:34:35.945Z,47.10
2019-02-15T00:37:53.545Z,45.57
2019-02-15T00:40:53.320Z,51.30
2019-02-15T00:43:42.611Z,45.53
2019-02-15T00:47:17.954Z,50.47
2019-02-15T00:50:22.530Z,47.17
2019-02-15T00:53:43.977Z,44.90
2019-02-15T00:56:54.518Z,44.50
2019-02-15T01:00:17.457Z,54.13
2019-02-15T01:06:33.336Z,44.63
2019-02-15T01:09:45.555Z,44.10
2019-02-15T01:12:39.337Z,44.30
2019-02-15T01:19:25.010Z,45.20
2019-02-15T01:22:14.236Z,48.10
2019-02-15T01:25:27.655Z,43.57
2019-02-15T01:28:11.688Z,50.00
2019-02-15T01:31:36.888Z,47.97
2019-02-15T01:34:43.345Z,43.50
2019-02-15T01:37:42.814Z,48.30
2019-02-15T01:41:04.699Z,47.97
2019-02-15T01:47:03.721Z,48.20
2019-02-15T01:53:24.820Z,48.53
2019-02-15T01:56:34.191Z,49.03
2019-02-15T01:59:46.337Z,50.13
2019-02-15T02:02:08.363Z,51.17
2019-02-15T02:05:05.874Z,49.87
2019-02-15T02:08:20.544Z,50.57
2019-02-15T02:17:36.168Z,46.00
2019-02-15T02:20:13.939Z,41.27
2019-02-15T02:23:02.547Z,43.27
2019-02-15T02:25:39.546Z,38.90
2019-02-15T02:28:28.518Z,40.13
2019-02-15T02:31:12.079Z,38.27
2019-02-15T02:34:03.715Z,43.67
2019-02-15T02:40:26.360Z,38.37
2019-02-15T02:43:23.843Z,43.00
2019-02-15T02:47:02.830Z,43.57
2019-02-15T02:49:55.271Z,44.20
2019-02-15T02:56:16.303Z,40.80
2019-02-15T02:59:13.910Z,39.47
2019-02-15T03:02:22.629Z,38.07
2019-02-15T03:08:46.427Z,43.67
2019-02-15T03:11:27.671Z,44.00
2019-02-15T03:18:31.196Z,50.27
2019-02-15T03:25:07.459Z,50.40
2019-02-15T03:31:38.145Z,44.27
2019-02-15T03:34:14.487Z,43.27
2019-02-15T03:37:27.922Z,44.57
2019-02-15T03:40:19.544Z,40.63
2019-02-15T03:43:11.370Z,40.83
2019-02-15T03:49:41.498Z,43.43
2019-02-15T03:52:49.526Z,42.67
2019-02-15T03:58:52.534Z,52.33
2019-02-15T04:02:18.437Z,56.27
2019-02-15T04:05:08.764Z,58.63
2019-02-15T04:07:44.680Z,66.03
2019-02-15T04:10:27.678Z,71.37
2019-02-15T04:13:49.164Z,66.03
2019-02-15T04:17:05.463Z,53.53
2019-02-15T04:26:57.613Z,52.93
2019-02-15T04:29:33.230Z,47.63
2019-02-15T04:32:20.271Z,42.23
2019-02-15T04:38:35.832Z,40.67
2019-02-15T04:41:05.681Z,43.13
2019-02-15T04:44:18.270Z,44.67
2019-02-15T04:47:32.333Z,43.87
2019-02-15T04:50:42.107Z,42.77
2019-02-15T04:56:57.401Z,38.63
2019-02-15T05:03:03.157Z,41.00
2019-02-15T05:11:16.905Z,39.60
2019-02-15T05:12:22.628Z,39.83
2019-02-15T05:15:16.380Z,39.43
2019-02-15T05:17:52.677Z,39.37
2019-02-15T05:20:22.466Z,44.60
2019-02-15T05:22:52.221Z,44.20
2019-02-15T05:25:22.046Z,40.63
2019-02-15T05:27:57.690Z,38.27
2019-02-15T05:30:27.477Z,35.90
2019-02-15T05:32:57.295Z,31.80
2019-02-15T05:35:27.050Z,34.33
2019-02-15T05:37:57.909Z,31.43
2019-02-15T05:40:31.083Z,28.53
2019-02-15T05:43:03.150Z,28.93
2019-02-15T05:45:36.111Z,31.63
2019-02-15T05:48:05.908Z,28.37
2019-02-15T05:50:35.869Z,32.40
2019-02-15T05:53:08.834Z,32.97
2019-02-15T05:55:38.693Z,30.77
2019-02-15T06:01:12.831Z,34.70
2019-02-15T06:05:26.808Z,31.97
2019-02-15T06:07:37.553Z,34.50
2019-02-15T06:10:46.341Z,30.63
2019-02-15T06:13:42.475Z,32.53
2019-02-15T06:16:47.123Z,35.10
2019-02-15T06:19:16.927Z,37.73
2019-02-15T06:21:49.567Z,35.17
2019-02-15T06:24:35.155Z,35.83
2019-02-15T06:27:37.919Z,35.93
2019-02-15T06:37:38.294Z,35.83
2019-02-15T06:40:22.832Z,36.27
2019-02-15T06:43:52.290Z,44.30
2019-02-15T06:50:34.473Z,45.67
2019-02-15T06:57:14.213Z,42.13
2019-02-15T07:01:05.594Z,41.03
2019-02-15T07:06:44.329Z,47.87
2019-02-15T07:09:06.740Z,39.03
2019-02-15T07:11:42.300Z,41.20
2019-02-15T07:15:38.603Z,41.13
2019-02-15T07:17:06.872Z,37.60
2019-02-15T07:19:43.713Z,50.10
2019-02-15T07:22:25.439Z,45.77
2019-02-15T07:25:16.895Z,41.27
2019-02-15T07:28:13.476Z,40.60
2019-02-15T07:31:03.114Z,42.97
2019-02-15T07:34:21.877Z,45.97
2019-02-15T07:37:07.444Z,60.30
2019-02-15T07:43:16.933Z,70.13
2019-02-15T07:45:53.897Z,51.47
2019-02-15T07:56:07.719Z,30.40
2019-02-15T07:58:57.287Z,30.70
2019-02-15T08:01:46.717Z,30.57
2019-02-15T08:04:37.543Z,29.97
2019-02-15T08:07:07.690Z,26.73
2019-02-15T08:09:40.981Z,28.17
2019-02-15T08:12:16.731Z,23.73
2019-02-15T08:14:58.225Z,25.23
2019-02-15T08:18:14.901Z,24.67
2019-02-15T08:20:08.754Z,21.33
2019-02-15T08:22:48.772Z,22.00
2019-02-15T08:25:19.036Z,26.60
2019-02-15T08:27:54.320Z,21.80
2019-02-15T08:30:47.332Z,19.03
2019-02-15T08:33:18.213Z,22.33
2019-02-15T08:35:55.733Z,23.20
2019-02-15T08:38:31.709Z,22.73
2019-02-15T08:41:06.445Z,24.17
2019-02-15T08:43:41.211Z,20.03
2019-02-15T08:46:18.301Z,21.70
2019-02-15T08:49:03.832Z,19.50
2019-02-15T08:55:32.699Z,18.47
2019-02-15T08:58:07.068Z,21.10
2019-02-15T09:00:48.372Z,22.33
2019-02-15T09:03:18.773Z,17.60
2019-02-15T09:05:51.967Z,19.13
2019-02-15T09:08:30.170Z,21.43
2019-02-15T09:11:33.470Z,19.57
2019-02-15T09:14:07.036Z,22.70
2019-02-15T09:16:51.577Z,19.27
2019-02-15T09:19:37.423Z,19.73
2019-02-15T09:22:14.766Z,16.30
2019-02-15T09:25:00.417Z,20.60
2019-02-15T09:27:43.087Z,17.37
2019-02-15T09:30:28.109Z,18.00
2019-02-15T09:33:22.563Z,17.53
2019-02-15T09:36:02.359Z,21.37
2019-02-15T09:38:34.192Z,20.33
2019-02-15T09:41:13.768Z,17.03
2019-02-15T09:43:57.118Z,18.57
2019-02-15T09:46:32.434Z,22.17
2019-02-15T09:49:20.041Z,19.07
2019-02-15T09:52:02.477Z,20.70
2019-02-15T09:54:38.248Z,23.40
2019-02-15T09:57:20.491Z,20.30
2019-02-15T10:00:05.035Z,17.77
2019-02-15T10:02:40.512Z,24.27
2019-02-15T10:05:14.106Z,17.97
2019-02-15T10:07:47.096Z,20.40
2019-02-15T10:10:32.352Z,17.03
2019-02-15T10:13:23.060Z,19.13
2019-02-15T10:16:03.410Z,21.63
2019-02-15T10:18:40.797Z,21.23
2019-02-15T10:21:21.777Z,19.10
2019-02-15T10:23:50.496Z,16.60
2019-02-15T10:26:27.085Z,16.77
2019-02-15T10:29:00.735Z,17.73
2019-02-15T10:31:40.377Z,17.27
2019-02-15T10:34:16.823Z,18.83
2019-02-15T10:37:04.045Z,20.73
2019-02-15T10:40:27.552Z,17.57
2019-02-15T10:46:51.810Z,19.20
2019-02-15T10:49:27.145Z,16.10
2019-02-15T10:52:00.466Z,16.93
2019-02-15T10:54:33.871Z,17.20
2019-02-15T10:57:22.845Z,14.57
2019-02-15T11:00:21.843Z,17.93
2019-02-15T11:02:51.064Z,15.40
2019-02-15T11:05:18.981Z,14.53
2019-02-15T11:07:59.624Z,13.20
2019-02-15T11:10:56.891Z,18.07
2019-02-15T11:13:11.870Z,16.10
2019-02-15T11:15:44.987Z,14.40
2019-02-15T11:18:58.781Z,20.13
2019-02-15T11:21:33.075Z,16.07
2019-02-15T11:27:42.687Z,14.73
2019-02-15T11:30:16.338Z,12.67
2019-02-15T11:32:56.213Z,14.87
2019-02-15T11:35:30.906Z,16.43
2019-02-15T11:38:05.947Z,15.50
2019-02-15T11:40:49.009Z,14.97
2019-02-15T11:43:18.890Z,14.83
2019-02-15T11:46:00.362Z,12.50
2019-02-15T11:50:23.195Z,16.53
2019-02-15T11:51:11.773Z,15.53
2019-02-15T11:53:48.964Z,15.97
2019-02-15T11:56:25.388Z,13.93
2019-02-15T11:58:59.398Z,15.73
2019-02-15T12:01:40.348Z,13.87
2019-02-15T12:04:13.385Z,17.27
2019-02-15T12:07:41.173Z,15.23
2019-02-15T12:13:32.324Z,11.83
2019-02-15T12:16:04.933Z,10.07
2019-02-15T12:18:37.849Z,11.90
2019-02-15T12:21:10.101Z,13.90
2019-02-15T12:23:54.338Z,12.60
2019-02-15T12:26:20.089Z,34.93
2019-02-15T12:28:55.078Z,14.13
2019-02-15T12:31:25.403Z,12.27
2019-02-15T12:33:57.216Z,11.60
2019-02-15T12:36:27.151Z,14.73
2019-02-15T12:39:02.259Z,15.27
2019-02-15T12:41:34.998Z,11.53
2019-02-15T12:44:07.897Z,13.57
2019-02-15T12:46:40.735Z,13.83
2019-02-15T12:49:10.672Z,11.23
2019-02-15T12:51:49.271Z,12.00
2019-02-15T12:54:20.717Z,14.53
2019-02-15T12:56:55.577Z,12.53
2019-02-15T12:59:27.388Z,11.70
2019-02-15T13:02:00.595Z,25.73
2019-02-15T13:04:37.654Z,13.97
2019-02-15T13:07:09.882Z,11.73
2019-02-15T13:09:41.028Z,10.63
2019-02-15T13:12:11.252Z,11.73
2019-02-15T13:14:44.792Z,12.83
2019-02-15T13:17:14.161Z,13.37
2019-02-15T13:19:47.361Z,14.93
2019-02-15T13:22:20.149Z,14.00
2019-02-15T13:24:59.275Z,11.37
2019-02-15T13:27:35.615Z,13.40
2019-02-15T13:30:06.320Z,14.07
2019-02-15T13:32:36.569Z,13.03
2019-02-15T13:35:14.079Z,10.80
2019-02-15T13:37:50.596Z,14.03
2019-02-15T13:40:28.031Z,13.47
2019-02-15T13:43:03.186Z,15.57
2019-02-15T13:45:33.485Z,13.17
2019-02-15T13:48:06.216Z,12.13
2019-02-15T13:50:55.794Z,12.03
2019-02-15T13:53:33.692Z,14.07
2019-02-15T13:56:06.156Z,11.53
2019-02-15T13:58:41.339Z,12.03
2019-02-15T14:01:11.379Z,12.63
2019-02-15T14:03:44.620Z,11.73
2019-02-15T14:06:15.081Z,11.47
2019-02-15T14:08:49.921Z,17.40
2019-02-15T14:11:21.414Z,12.23
2019-02-15T14:13:55.336Z,11.83
2019-02-15T14:16:25.847Z,12.63
2019-02-15T14:18:56.962Z,10.70
2019-02-15T14:21:29.286Z,13.03
2019-02-15T14:24:03.786Z,20.93
2019-02-15T14:26:35.389Z,12.10
2019-02-15T14:29:20.917Z,13.00
2019-02-15T14:31:49.035Z,12.63
2019-02-15T14:34:46.909Z,13.57
2019-02-15T14:37:23.186Z,13.13
2019-02-15T14:39:57.721Z,13.20
2019-02-15T14:42:30.399Z,25.57
2019-02-15T14:49:49.962Z,10.83
2019-02-15T14:52:40.924Z,13.13
2019-02-15T14:55:45.739Z,16.67
2019-02-15T14:59:08.070Z,25.20
2019-02-15T15:02:30.579Z,16.97
2019-02-15T15:05:04.241Z,16.17
2019-02-15T15:13:17.247Z,16.10
2019-02-15T15:14:28.623Z,15.03
2019-02-15T15:17:04.197Z,15.80
2019-02-15T15:19:38.644Z,12.57
2019-02-15T15:22:17.297Z,12.33
2019-02-15T15:24:49.815Z,12.87
2019-02-15T15:27:19.603Z,15.23
2019-02-15T15:29:50.468Z,34.77
2019-02-15T15:32:20.563Z,20.50
2019-02-15T15:34:50.425Z,29.57
2019-02-15T15:37:23.872Z,26.93
2019-02-15T15:39:57.757Z,25.13
2019-02-15T15:42:27.505Z,15.03
2019-02-15T15:44:57.743Z,16.13
2019-02-15T15:47:27.553Z,16.50
2019-02-15T15:49:57.355Z,15.23
2019-02-15T15:52:27.303Z,16.87
2019-02-15T15:54:59.227Z,19.33
2019-02-15T15:57:29.052Z,17.87
2019-02-15T15:59:58.931Z,18.40
2019-02-15T16:02:29.120Z,81.57
2019-02-15T16:05:02.084Z,25.00
2019-02-15T16:07:31.812Z,23.20
2019-02-15T16:10:01.491Z,19.73
2019-02-15T16:12:34.231Z,16.43
2019-02-15T16:15:04.458Z,22.43
2019-02-15T16:17:36.813Z,19.53
2019-02-15T16:20:07.591Z,20.17
2019-02-15T16:22:37.332Z,18.80
2019-02-15T16:25:07.215Z,21.60
2019-02-15T16:27:36.898Z,19.20
2019-02-15T16:30:07.295Z,23.90
2019-02-15T16:32:38.443Z,19.30
2019-02-15T16:35:29.925Z,20.33
2019-02-15T16:38:00.409Z,41.00
2019-02-15T16:40:31.452Z,26.53
2019-02-15T16:43:01.496Z,22.87
2019-02-15T16:45:31.418Z,24.20
2019-02-15T16:48:06.572Z,29.43
2019-02-15T16:51:41.506Z,28.83
2019-02-15T16:54:11.445Z,40.17
2019-02-15T16:56:42.680Z,45.37
2019-02-15T16:59:17.079Z,43.47
2019-02-15T17:01:59.097Z,33.20
2019-02-15T17:04:30.244Z,23.53
2019-02-15T17:07:01.833Z,28.77
2019-02-15T17:09:31.688Z,18.80
2019-02-15T17:12:01.595Z,22.53
2019-02-15T17:14:31.526Z,22.37
2019-02-15T17:17:01.269Z,152.00
2019-02-15T17:19:31.120Z,56.60
2019-02-15T17:22:00.989Z,42.07
2019-02-15T17:24:32.047Z,24.73
2019-02-15T17:27:03.211Z,28.37
2019-02-15T17:29:33.080Z,24.83
2019-02-15T17:32:05.803Z,33.77
2019-02-15T17:34:35.700Z,29.07
2019-02-15T17:38:49.096Z,30.67
2019-02-15T17:41:03.216Z,48.87
2019-02-15T17:43:38.778Z,31.30
2019-02-15T17:46:14.060Z,29.67
2019-02-15T17:49:03.407Z,31.40
2019-02-15T17:54:32.440Z,28.73
2019-02-15T17:57:05.187Z,26.87
2019-02-15T17:59:40.370Z,29.23
2019-02-15T18:02:10.046Z,33.53
2019-02-15T18:04:39.831Z,31.57
2019-02-15T18:07:09.686Z,36.80
2019-02-15T18:09:39.464Z,31.67
2019-02-15T18:12:09.384Z,27.10
2019-02-15T18:14:39.411Z,29.23
2019-02-15T18:17:13.526Z,24.80
2019-02-15T18:19:47.510Z,22.63
2019-02-15T18:22:19.061Z,22.00
2019-02-15T18:29:29.637Z,27.60
2019-02-15T18:37:37.807Z,21.83
2019-02-15T18:40:14.855Z,23.60
2019-02-15T18:42:44.573Z,23.40
2019-02-15T18:45:32.125Z,20.77
2019-02-15T18:48:04.630Z,25.73
2019-02-15T18:50:37.788Z,25.50
2019-02-15T18:53:30.792Z,22.30
2019-02-15T18:56:06.732Z,29.20
2019-02-15T18:58:53.518Z,26.37
2019-02-15T19:01:21.215Z,34.20
2019-02-15T19:03:55.545Z,28.70
2019-02-15T19:09:52.862Z,32.47
2019-02-15T19:16:42.014Z,30.97
2019-02-15T19:19:52.947Z,30.83
2019-02-15T19:28:54.080Z,32.90
2019-02-15T19:30:32.091Z,31.57
2019-02-15T19:33:26.103Z,34.73
2019-02-15T19:37:00.049Z,34.53
2019-02-15T19:39:51.480Z,32.77
2019-02-15T19:42:52.600Z,29.50
2019-02-15T19:45:49.561Z,32.97
2019-02-15T19:49:17.300Z,32.53
2019-02-15T19:52:07.794Z,39.10
2019-02-15T19:54:41.264Z,36.13
2019-02-15T19:57:13.520Z,29.67
2019-02-15T19:59:53.176Z,30.67
2019-02-15T20:02:53.115Z,33.10
2019-02-15T20:05:56.268Z,28.20
2019-02-15T20:08:28.126Z,31.10
2019-02-15T20:11:00.524Z,30.40
2019-02-15T20:13:30.864Z,33.27
2019-02-15T20:16:00.627Z,30.40
2019-02-15T20:18:30.494Z,30.87
2019-02-15T20:21:00.375Z,38.93
2019-02-15T20:23:30.519Z,69.73
2019-02-15T20:26:02.785Z,37.10
2019-02-15T20:28:32.602Z,33.67
2019-02-15T20:31:02.489Z,30.63
2019-02-15T20:33:32.240Z,31.93
2019-02-15T20:36:04.206Z,56.60
2019-02-15T20:38:33.970Z,43.13
2019-02-15T20:41:03.739Z,36.77
2019-02-15T20:43:33.613Z,38.77
2019-02-15T20:46:03.405Z,33.90
2019-02-15T20:49:04.756Z,36.23
2019-02-15T20:51:52.346Z,37.53
2019-02-15T20:54:36.582Z,35.43
2019-02-15T20:57:17.904Z,37.90
2019-02-15T21:00:31.370Z,35.53
2019-02-15T21:03:02.433Z,33.83
2019-02-15T21:06:10.398Z,30.13
2019-02-15T21:08:58.038Z,34.30
2019-02-15T21:14:32.917Z,51.73
2019-02-15T21:15:54.291Z,42.67
2019-02-15T21:19:19.607Z,38.83
2019-02-15T21:22:03.329Z,34.27
2019-02-15T21:24:38.865Z,37.33
2019-02-15T21:27:08.682Z,34.70
2019-02-15T21:29:38.441Z,34.07
2019-02-15T21:32:08.303Z,34.70
2019-02-15T21:34:37.973Z,54.80
2019-02-15T21:37:07.860Z,35.03
2019-02-15T21:39:37.719Z,36.17
2019-02-15T21:42:12.619Z,35.63
2019-02-15T21:44:44.003Z,38.50
2019-02-15T21:47:13.812Z,42.53
2019-02-15T21:52:34.043Z,38.53
2019-02-15T21:55:10.876Z,45.10
2019-02-15T21:57:40.807Z,39.63
2019-02-15T22:00:16.246Z,42.63
2019-02-15T22:02:54.419Z,47.43
2019-02-15T22:05:44.981Z,43.43
2019-02-15T22:08:26.522Z,39.50
2019-02-15T22:10:56.388Z,40.20
2019-02-15T22:13:26.209Z,44.63
2019-02-15T22:17:29.604Z,43.20
2019-02-15T22:19:12.297Z,42.83
2019-02-15T22:22:03.559Z,51.53
2019-02-15T22:24:33.523Z,48.53
2019-02-15T22:27:12.427Z,48.13
2019-02-15T22:29:42.207Z,49.53
2019-02-15T22:32:11.937Z,44.00
2019-02-15T22:34:41.644Z,45.97
2019-02-15T22:37:13.062Z,43.30
2019-02-15T22:39:43.026Z,44.50
2019-02-15T22:42:12.850Z,49.73
2019-02-15T22:44:42.566Z,50.07
2019-02-15T22:47:12.586Z,52.67
2019-02-15T22:49:43.541Z,49.87
2019-02-15T22:52:13.346Z,55.43
2019-02-15T22:54:43.346Z,50.33
2019-02-15T22:57:19.070Z,44.37
2019-02-15T22:59:50.518Z,42.87
2019-02-15T23:02:20.573Z,50.07
2019-02-15T23:04:50.590Z,52.47
2019-02-15T23:07:20.475Z,59.30
2019-02-15T23:09:50.421Z,74.10
2019-02-15T23:12:20.394Z,68.67
2019-02-15T23:14:50.414Z,59.57
2019-02-15T23:17:20.256Z,55.07
2019-02-15T23:19:50.168Z,56.47
2019-02-15T23:22:20.033Z,54.10
2019-02-15T23:24:52.686Z,52.33
2019-02-15T23:27:37.296Z,54.10
2019-02-15T23:30:07.214Z,46.00
2019-02-15T23:32:48.703Z,46.90
2019-02-15T23:35:18.934Z,47.67
2019-02-15T23:37:48.687Z,46.97
2019-02-15T23:40:18.409Z,50.47
2019-02-15T23:42:50.511Z,50.70
2019-02-15T23:45:20.681Z,52.00
2019-02-15T23:47:50.743Z,52.20
2019-02-15T23:50:20.541Z,53.37
2019-02-15T23:52:52.640Z,55.47
2019-02-15T23:55:22.379Z,58.90
2019-02-15T23:57:52.161Z,64.13
